Arklow Fortune — EIFZ — position and weather

sailwx.info

Track history (hours):
 
Tides and Currents Weather Stations Pressure Air Temp Water Temp Dewpoint Dewpoint Depression Visibility Wind Speed Wind Dir Waves Ship Positions

Arklow Fortune

Last reported at 2018-Jan-23 00:22 UTC. Time now 2018-Jan-23 04:20 UTC.
Position N 49°52' W 002°29'.

Length 90 m; draft 6.2 m.

Type: Cargo ship. MMSI: 250000963.

Date/timePositionNaut miles runAvg speedWind from/ knotsBaromVisibWave heightAir tempDewpointWater temp
2018-Jan-23 00:22N 49°52' W 002°29'512.8
2018-Jan-22 23:59N 49°51' W 002°36'612.6
2018-Jan-22 23:29N 49°49' W 002°46'10111.3
2018-Jan-22 14:32N 48°50' W 004°51'1 9.0
2018-Jan-22 14:28N 48°49' W 004°52'4 8.9
2018-Jan-22 14:00N 48°47' W 004°57'4 8.7
2018-Jan-22 13:30N 48°44' W 005°02'4 8.4
2018-Jan-22 13:00N 48°42' W 005°07'4 8.1
2018-Jan-22 12:30N 48°39' W 005°12'4 8.0
2018-Jan-22 12:00N 48°37' W 005°16'28 8.2
2018-Jan-22 08:33N 48°14' W 005°42'291 6.6
2018-Jan-20 12:14N 43°42' W 003°14'2 6.9
2018-Jan-20 11:56N 43°40' W 003°13'9 7.6
2018-Jan-20 10:42N 43°31' W 003°09'2 7.9
2018-Jan-20 10:30N 43°29' W 003°08'4 8.7
2018-Jan-20 10:00N 43°25' W 003°06'4 8.0
2018-Jan-20 09:30N 43°22' W 003°03'2 3.3
2018-Jan-20 08:59N 43°20' W 003°02'0 0.0
2018-Jan-20 08:26N 43°20' W 003°02'0 0.0
2018-Jan-20 07:59N 43°20' W 003°02'0 0.0
2018-Jan-20 07:29N 43°20' W 003°02'0 0.0
2018-Jan-20 06:59N 43°20' W 003°02'0 0.0
2018-Jan-20 06:29N 43°20' W 003°02'0 0.0
2018-Jan-20 05:59N 43°20' W 003°02'0 0.0
2018-Jan-20 05:29N 43°20' W 003°02'0 0.0
2018-Jan-20 04:59N 43°20' W 003°02'0 0.0
2018-Jan-20 04:29N 43°20' W 003°02'0 0.0
2018-Jan-20 03:59N 43°20' W 003°02'0 0.0
2018-Jan-20 03:29N 43°20' W 003°02'0 0.0
2018-Jan-20 02:59N 43°20' W 003°02'0 0.0
2018-Jan-20 02:29N 43°20' W 003°02'0 0.0
2018-Jan-20 01:59N 43°20' W 003°02'0 0.0
2018-Jan-20 01:29N 43°20' W 003°02'0 0.0
2018-Jan-20 00:59N 43°20' W 003°02'0 0.0
2018-Jan-20 00:29N 43°20' W 003°02'0 0.0
2018-Jan-19 23:59N 43°20' W 003°02'0 0.0
2018-Jan-19 23:29N 43°20' W 003°02'0 0.0
2018-Jan-19 22:59N 43°20' W 003°02'0 0.0
2018-Jan-19 22:29N 43°20' W 003°02'0 0.0
2018-Jan-19 21:59N 43°20' W 003°02'0 0.0
2018-Jan-19 21:29N 43°20' W 003°02'0 0.0
2018-Jan-19 20:59N 43°20' W 003°02'0 0.0
2018-Jan-19 20:29N 43°20' W 003°02'0 0.0
2018-Jan-19 19:59N 43°20' W 003°02'0 0.0
2018-Jan-19 19:29N 43°20' W 003°02'0 0.0
2018-Jan-19 18:59N 43°20' W 003°02'0 0.0
2018-Jan-19 18:29N 43°20' W 003°02'0 0.0
2018-Jan-19 17:59N 43°20' W 003°02'0 0.0
2018-Jan-19 17:29N 43°20' W 003°02'0 0.0
2018-Jan-19 16:59N 43°20' W 003°02'0 0.0
2018-Jan-19 16:29N 43°20' W 003°02'0 0.0
2018-Jan-19 15:59N 43°20' W 003°02'0 0.0
2018-Jan-19 15:29N 43°20' W 003°02'0 0.0
2018-Jan-19 14:59N 43°20' W 003°02'0 0.0
2018-Jan-19 14:29N 43°20' W 003°02'0 0.0
2018-Jan-19 13:59N 43°20' W 003°02'0 0.0
2018-Jan-19 13:29N 43°20' W 003°02'0 0.0
2018-Jan-19 12:59N 43°20' W 003°02'0 0.0
2018-Jan-19 12:29N 43°20' W 003°02'0 0.0
2018-Jan-19 11:59N 43°20' W 003°02'0 0.0
2018-Jan-19 11:29N 43°20' W 003°02'0 0.0
2018-Jan-19 10:59N 43°20' W 003°02'0 0.0
2018-Jan-19 10:29N 43°20' W 003°02'0 0.0
2018-Jan-19 09:59N 43°20' W 003°02'0 0.0
2018-Jan-19 09:29N 43°20' W 003°02'0 0.0
2018-Jan-19 08:59N 43°20' W 003°02'0 0.0
2018-Jan-19 08:29N 43°20' W 003°02'0 0.0
2018-Jan-19 07:59N 43°20' W 003°02'0 0.0
2018-Jan-19 07:29N 43°20' W 003°02'0 0.0
2018-Jan-19 06:59N 43°20' W 003°02'0 0.0
2018-Jan-19 06:29N 43°20' W 003°02'0 0.0
2018-Jan-19 05:59N 43°20' W 003°02'0 0.0
2018-Jan-19 05:29N 43°20' W 003°02'0 0.0
2018-Jan-19 04:59N 43°20' W 003°02'0 0.0
2018-Jan-19 04:26N 43°20' W 003°02'0 0.0
2018-Jan-19 03:59N 43°20' W 003°02'0 0.0
2018-Jan-19 03:29N 43°20' W 003°02'0 0.0
2018-Jan-19 02:59N 43°20' W 003°02'0 0.0
2018-Jan-19 02:26N 43°20' W 003°02'0 0.0
2018-Jan-19 01:59N 43°20' W 003°02'0 0.0
2018-Jan-19 01:29N 43°20' W 003°02'0 0.0
2018-Jan-19 00:59N 43°20' W 003°02'0 0.0
2018-Jan-19 00:29N 43°20' W 003°02'0 0.0
2018-Jan-18 23:59N 43°20' W 003°02'0 0.0
2018-Jan-18 23:29N 43°20' W 003°02'0 0.0
2018-Jan-18 22:59N 43°20' W 003°02'0 0.0
2018-Jan-18 22:29N 43°20' W 003°02'0 0.0
2018-Jan-18 21:59N 43°20' W 003°02'0 0.0
2018-Jan-18 21:29N 43°20' W 003°02'0 0.0
2018-Jan-18 20:59N 43°20' W 003°02'0 0.0
2018-Jan-18 20:29N 43°20' W 003°02'0 0.0
2018-Jan-18 19:59N 43°20' W 003°02'0 0.0
2018-Jan-18 19:29N 43°20' W 003°02'0 0.9
2018-Jan-18 19:00N 43°21' W 003°02'3 6.3
2018-Jan-18 18:30N 43°23' W 003°05'510.2
2018-Jan-18 18:00N 43°27' W 003°09'510.4
2018-Jan-18 17:30N 43°31' W 003°14'5 9.4
2018-Jan-18 16:55N 43°36' W 003°17'1 3.3
2018-Jan-18 16:30N 43°36' W 003°19'1 1.4
2018-Jan-18 16:00N 43°37' W 003°20'1 1.9
2018-Jan-18 15:30N 43°36' W 003°19'1 1.7
2018-Jan-18 14:49N 43°35' W 003°18'1 1.7
2018-Jan-18 14:30N 43°35' W 003°17'1 1.3
2018-Jan-18 14:00N 43°34' W 003°17'1 1.8
2018-Jan-18 13:30N 43°34' W 003°16'1 1.9
2018-Jan-18 13:00N 43°33' W 003°15'1 1.1
2018-Jan-18 12:31N 43°32' W 003°15'1 1.2
2018-Jan-18 12:00N 43°32' W 003°15'1 1.3
2018-Jan-18 11:31N 43°31' W 003°15'1 1.5
2018-Jan-18 11:00N 43°30' W 003°15'1 1.6
2018-Jan-18 10:30N 43°29' W 003°15'2 4.4
2018-Jan-18 10:00N 43°30' W 003°18'611.6
2018-Jan-18 09:30N 43°33' W 003°24'612.3
2018-Jan-18 09:00N 43°35' W 003°33'612.0
2018-Jan-18 08:30N 43°35' W 003°41'6612.3
2018-Jan-18 03:07N 43°42' W 005°12'112.1
2018-Jan-18 03:00N 43°42' W 005°14'612.1
2018-Jan-18 02:28N 43°43' W 005°23'612.2
2018-Jan-18 02:00N 43°43' W 005°31'  
Track history (hours):
 
Tides and Currents Weather Stations Pressure Air Temp Water Temp Dewpoint Dewpoint Depression Visibility Wind Speed Wind Dir Waves Ship Positions

Arklow Fortune

Last reported at 2018-Jan-23 00:22 UTC. Time now 2018-Jan-23 04:20 UTC.
Position N 49°52' W 002°29'.

Length 90 m; draft 6.2 m.

Type: Cargo ship. MMSI: 250000963.

Date/timePositionNaut miles runAvg speedWind from/ knotsBaromVisibWave heightAir tempDewpointWater temp
2018-Jan-23 00:22N 49°52' W 002°29'512.8
2018-Jan-22 23:59N 49°51' W 002°36'612.6
2018-Jan-22 23:29N 49°49' W 002°46'10111.3
2018-Jan-22 14:32N 48°50' W 004°51'1 9.0
2018-Jan-22 14:28N 48°49' W 004°52'4 8.9
2018-Jan-22 14:00N 48°47' W 004°57'4 8.7
2018-Jan-22 13:30N 48°44' W 005°02'4 8.4
2018-Jan-22 13:00N 48°42' W 005°07'4 8.1
2018-Jan-22 12:30N 48°39' W 005°12'4 8.0
2018-Jan-22 12:00N 48°37' W 005°16'28 8.2
2018-Jan-22 08:33N 48°14' W 005°42'291 6.6
2018-Jan-20 12:14N 43°42' W 003°14'2 6.9
2018-Jan-20 11:56N 43°40' W 003°13'9 7.6
2018-Jan-20 10:42N 43°31' W 003°09'2 7.9
2018-Jan-20 10:30N 43°29' W 003°08'4 8.7
2018-Jan-20 10:00N 43°25' W 003°06'4 8.0
2018-Jan-20 09:30N 43°22' W 003°03'2 3.3
2018-Jan-20 08:59N 43°20' W 003°02'0 0.0
2018-Jan-20 08:26N 43°20' W 003°02'0 0.0
2018-Jan-20 07:59N 43°20' W 003°02'0 0.0
2018-Jan-20 07:29N 43°20' W 003°02'0 0.0
2018-Jan-20 06:59N 43°20' W 003°02'0 0.0
2018-Jan-20 06:29N 43°20' W 003°02'0 0.0
2018-Jan-20 05:59N 43°20' W 003°02'0 0.0
2018-Jan-20 05:29N 43°20' W 003°02'0 0.0
2018-Jan-20 04:59N 43°20' W 003°02'0 0.0
2018-Jan-20 04:29N 43°20' W 003°02'0 0.0
2018-Jan-20 03:59N 43°20' W 003°02'0 0.0
2018-Jan-20 03:29N 43°20' W 003°02'0 0.0
2018-Jan-20 02:59N 43°20' W 003°02'0 0.0
2018-Jan-20 02:29N 43°20' W 003°02'0 0.0
2018-Jan-20 01:59N 43°20' W 003°02'0 0.0
2018-Jan-20 01:29N 43°20' W 003°02'0 0.0
2018-Jan-20 00:59N 43°20' W 003°02'0 0.0
2018-Jan-20 00:29N 43°20' W 003°02'0 0.0
2018-Jan-19 23:59N 43°20' W 003°02'0 0.0
2018-Jan-19 23:29N 43°20' W 003°02'0 0.0
2018-Jan-19 22:59N 43°20' W 003°02'0 0.0
2018-Jan-19 22:29N 43°20' W 003°02'0 0.0
2018-Jan-19 21:59N 43°20' W 003°02'0 0.0
2018-Jan-19 21:29N 43°20' W 003°02'0 0.0
2018-Jan-19 20:59N 43°20' W 003°02'0 0.0
2018-Jan-19 20:29N 43°20' W 003°02'0 0.0
2018-Jan-19 19:59N 43°20' W 003°02'0 0.0
2018-Jan-19 19:29N 43°20' W 003°02'0 0.0
2018-Jan-19 18:59N 43°20' W 003°02'0 0.0
2018-Jan-19 18:29N 43°20' W 003°02'0 0.0
2018-Jan-19 17:59N 43°20' W 003°02'0 0.0
2018-Jan-19 17:29N 43°20' W 003°02'0 0.0
2018-Jan-19 16:59N 43°20' W 003°02'0 0.0
2018-Jan-19 16:29N 43°20' W 003°02'0 0.0
2018-Jan-19 15:59N 43°20' W 003°02'0 0.0
2018-Jan-19 15:29N 43°20' W 003°02'0 0.0
2018-Jan-19 14:59N 43°20' W 003°02'0 0.0
2018-Jan-19 14:29N 43°20' W 003°02'0 0.0
2018-Jan-19 13:59N 43°20' W 003°02'0 0.0
2018-Jan-19 13:29N 43°20' W 003°02'0 0.0
2018-Jan-19 12:59N 43°20' W 003°02'0 0.0
2018-Jan-19 12:29N 43°20' W 003°02'0 0.0
2018-Jan-19 11:59N 43°20' W 003°02'0 0.0
2018-Jan-19 11:29N 43°20' W 003°02'0 0.0
2018-Jan-19 10:59N 43°20' W 003°02'0 0.0
2018-Jan-19 10:29N 43°20' W 003°02'0 0.0
2018-Jan-19 09:59N 43°20' W 003°02'0 0.0
2018-Jan-19 09:29N 43°20' W 003°02'0 0.0
2018-Jan-19 08:59N 43°20' W 003°02'0 0.0
2018-Jan-19 08:29N 43°20' W 003°02'0 0.0
2018-Jan-19 07:59N 43°20' W 003°02'0 0.0
2018-Jan-19 07:29N 43°20' W 003°02'0 0.0
2018-Jan-19 06:59N 43°20' W 003°02'0 0.0
2018-Jan-19 06:29N 43°20' W 003°02'0 0.0
2018-Jan-19 05:59N 43°20' W 003°02'0 0.0
2018-Jan-19 05:29N 43°20' W 003°02'0 0.0
2018-Jan-19 04:59N 43°20' W 003°02'0 0.0
2018-Jan-19 04:26N 43°20' W 003°02'0 0.0
2018-Jan-19 03:59N 43°20' W 003°02'0 0.0
2018-Jan-19 03:29N 43°20' W 003°02'0 0.0
2018-Jan-19 02:59N 43°20' W 003°02'0 0.0
2018-Jan-19 02:26N 43°20' W 003°02'0 0.0
2018-Jan-19 01:59N 43°20' W 003°02'0 0.0
2018-Jan-19 01:29N 43°20' W 003°02'0 0.0
2018-Jan-19 00:59N 43°20' W 003°02'0 0.0
2018-Jan-19 00:29N 43°20' W 003°02'0 0.0
2018-Jan-18 23:59N 43°20' W 003°02'0 0.0
2018-Jan-18 23:29N 43°20' W 003°02'0 0.0
2018-Jan-18 22:59N 43°20' W 003°02'0 0.0
2018-Jan-18 22:29N 43°20' W 003°02'0 0.0
2018-Jan-18 21:59N 43°20' W 003°02'0 0.0
2018-Jan-18 21:29N 43°20' W 003°02'0 0.0
2018-Jan-18 20:59N 43°20' W 003°02'0 0.0
2018-Jan-18 20:29N 43°20' W 003°02'0 0.0
2018-Jan-18 19:59N 43°20' W 003°02'0 0.0
2018-Jan-18 19:29N 43°20' W 003°02'0 0.9
2018-Jan-18 19:00N 43°21' W 003°02'3 6.3
2018-Jan-18 18:30N 43°23' W 003°05'510.2
2018-Jan-18 18:00N 43°27' W 003°09'510.4
2018-Jan-18 17:30N 43°31' W 003°14'5 9.4
2018-Jan-18 16:55N 43°36' W 003°17'1 3.3
2018-Jan-18 16:30N 43°36' W 003°19'1 1.4
2018-Jan-18 16:00N 43°37' W 003°20'1 1.9
2018-Jan-18 15:30N 43°36' W 003°19'1 1.7
2018-Jan-18 14:49N 43°35' W 003°18'1 1.7
2018-Jan-18 14:30N 43°35' W 003°17'1 1.3
2018-Jan-18 14:00N 43°34' W 003°17'1 1.8
2018-Jan-18 13:30N 43°34' W 003°16'1 1.9
2018-Jan-18 13:00N 43°33' W 003°15'1 1.1
2018-Jan-18 12:31N 43°32' W 003°15'1 1.2
2018-Jan-18 12:00N 43°32' W 003°15'1 1.3
2018-Jan-18 11:31N 43°31' W 003°15'1 1.5
2018-Jan-18 11:00N 43°30' W 003°15'1 1.6
2018-Jan-18 10:30N 43°29' W 003°15'2 4.4
2018-Jan-18 10:00N 43°30' W 003°18'611.6
2018-Jan-18 09:30N 43°33' W 003°24'612.3
2018-Jan-18 09:00N 43°35' W 003°33'612.0
2018-Jan-18 08:30N 43°35' W 003°41'6612.3
2018-Jan-18 03:07N 43°42' W 005°12'112.1
2018-Jan-18 03:00N 43°42' W 005°14'612.1
2018-Jan-18 02:28N 43°43' W 005°23'612.2
2018-Jan-18 02:00N 43°43' W 005°31'  

Dump ship's entire track history